sensor_id;sensor_type;location;lat;lon;timestamp;P1;durP1;ratioP1;P2;durP2;ratioP2
49460;SDS011;35355;49.198;-0.368;2022-10-31T00:01:09;6.80;;;1.90;;
49460;SDS011;35355;49.198;-0.368;2022-10-31T00:03:36;9.13;;;1.90;;
49460;SDS011;35355;49.198;-0.368;2022-10-31T00:06:01;5.55;;;1.85;;
49460;SDS011;35355;49.198;-0.368;2022-10-31T00:08:26;6.07;;;1.90;;
49460;SDS011;35355;49.198;-0.368;2022-10-31T00:10:52;9.35;;;2.40;;
49460;SDS011;35355;49.198;-0.368;2022-10-31T00:13:17;4.32;;;1.60;;
49460;SDS011;35355;49.198;-0.368;2022-10-31T00:15:43;5.80;;;2.00;;
49460;SDS011;35355;49.198;-0.368;2022-10-31T00:18:09;8.35;;;2.13;;
49460;SDS011;35355;49.198;-0.368;2022-10-31T00:20:34;4.95;;;1.95;;
49460;SDS011;35355;49.198;-0.368;2022-10-31T00:23:00;11.85;;;2.30;;
49460;SDS011;35355;49.198;-0.368;2022-10-31T00:25:26;3.85;;;1.83;;
49460;SDS011;35355;49.198;-0.368;2022-10-31T00:27:53;9.57;;;2.00;;
49460;SDS011;35355;49.198;-0.368;2022-10-31T00:30:18;6.47;;;2.58;;
49460;SDS011;35355;49.198;-0.368;2022-10-31T00:32:44;6.65;;;2.38;;
49460;SDS011;35355;49.198;-0.368;2022-10-31T00:35:09;5.95;;;2.25;;
49460;SDS011;35355;49.198;-0.368;2022-10-31T00:37:34;10.15;;;1.98;;
49460;SDS011;35355;49.198;-0.368;2022-10-31T00:40:00;7.38;;;2.13;;
49460;SDS011;35355;49.198;-0.368;2022-10-31T00:42:25;2.95;;;1.77;;
49460;SDS011;35355;49.198;-0.368;2022-10-31T00:44:52;8.57;;;2.25;;
49460;SDS011;35355;49.198;-0.368;2022-10-31T00:47:18;6.90;;;1.52;;
49460;SDS011;35355;49.198;-0.368;2022-10-31T00:49:43;10.98;;;2.42;;
49460;SDS011;35355;49.198;-0.368;2022-10-31T00:52:08;6.28;;;1.80;;
49460;SDS011;35355;49.198;-0.368;2022-10-31T00:54:34;8.88;;;2.65;;
49460;SDS011;35355;49.198;-0.368;2022-10-31T00:56:59;6.82;;;1.92;;
49460;SDS011;35355;49.198;-0.368;2022-10-31T00:59:24;11.80;;;2.20;;
49460;SDS011;35355;49.198;-0.368;2022-10-31T01:01:50;9.70;;;3.22;;
49460;SDS011;35355;49.198;-0.368;2022-10-31T01:04:15;8.85;;;2.30;;
49460;SDS011;35355;49.198;-0.368;2022-10-31T01:06:41;5.38;;;2.75;;
49460;SDS011;35355;49.198;-0.368;2022-10-31T01:09:06;9.05;;;2.40;;
49460;SDS011;35355;49.198;-0.368;2022-10-31T01:11:32;6.78;;;2.38;;
49460;SDS011;35355;49.198;-0.368;2022-10-31T01:13:57;6.40;;;2.35;;
49460;SDS011;35355;49.198;-0.368;2022-10-31T01:16:23;8.88;;;2.47;;
49460;SDS011;35355;49.198;-0.368;2022-10-31T01:18:51;5.15;;;2.47;;
49460;SDS011;35355;49.198;-0.368;2022-10-31T01:21:19;9.25;;;2.20;;
49460;SDS011;35355;49.198;-0.368;2022-10-31T01:23:46;4.05;;;2.28;;
49460;SDS011;35355;49.198;-0.368;2022-10-31T01:26:13;4.45;;;2.65;;
49460;SDS011;35355;49.198;-0.368;2022-10-31T01:28:43;6.03;;;2.13;;
49460;SDS011;35355;49.198;-0.368;2022-10-31T01:31:33;9.77;;;2.30;;
49460;SDS011;35355;49.198;-0.368;2022-10-31T01:34:01;6.63;;;2.88;;
49460;SDS011;35355;49.198;-0.368;2022-10-31T01:36:28;7.30;;;3.25;;
49460;SDS011;35355;49.198;-0.368;2022-10-31T01:38:56;9.15;;;2.65;;
49460;SDS011;35355;49.198;-0.368;2022-10-31T01:41:25;6.10;;;2.65;;
49460;SDS011;35355;49.198;-0.368;2022-10-31T01:43:54;6.07;;;2.53;;
49460;SDS011;35355;49.198;-0.368;2022-10-31T01:46:22;8.25;;;2.95;;
49460;SDS011;35355;49.198;-0.368;2022-10-31T01:48:51;14.57;;;3.28;;
49460;SDS011;35355;49.198;-0.368;2022-10-31T01:51:20;5.55;;;2.65;;
49460;SDS011;35355;49.198;-0.368;2022-10-31T01:53:50;5.05;;;2.38;;
49460;SDS011;35355;49.198;-0.368;2022-10-31T01:56:20;8.90;;;2.47;;
49460;SDS011;35355;49.198;-0.368;2022-10-31T01:58:45;6.80;;;3.13;;
49460;SDS011;35355;49.198;-0.368;2022-10-31T02:01:11;9.77;;;3.08;;
49460;SDS011;35355;49.198;-0.368;2022-10-31T02:03:39;9.23;;;3.10;;
49460;SDS011;35355;49.198;-0.368;2022-10-31T02:06:06;11.52;;;2.83;;
49460;SDS011;35355;49.198;-0.368;2022-10-31T02:11:04;12.55;;;3.03;;
49460;SDS011;35355;49.198;-0.368;2022-10-31T02:13:32;8.82;;;2.50;;
49460;SDS011;35355;49.198;-0.368;2022-10-31T02:15:59;10.05;;;3.17;;
49460;SDS011;35355;49.198;-0.368;2022-10-31T02:18:25;12.77;;;3.50;;
49460;SDS011;35355;49.198;-0.368;2022-10-31T02:31:40;8.07;;;3.28;;
49460;SDS011;35355;49.198;-0.368;2022-10-31T02:34:30;6.47;;;2.90;;
49460;SDS011;35355;49.198;-0.368;2022-10-31T02:45:31;10.07;;;3.17;;
49460;SDS011;35355;49.198;-0.368;2022-10-31T02:48:19;12.32;;;3.35;;
49460;SDS011;35355;49.198;-0.368;2022-10-31T02:50:52;6.70;;;3.17;;
49460;SDS011;35355;49.198;-0.368;2022-10-31T02:53:21;14.95;;;3.53;;
49460;SDS011;35355;49.198;-0.368;2022-10-31T02:55:49;9.02;;;3.05;;
49460;SDS011;35355;49.198;-0.368;2022-10-31T03:11:27;9.05;;;3.30;;
49460;SDS011;35355;49.198;-0.368;2022-10-31T03:14:04;12.43;;;4.07;;
49460;SDS011;35355;49.198;-0.368;2022-10-31T03:19:09;15.32;;;3.42;;
49460;SDS011;35355;49.198;-0.368;2022-10-31T03:21:40;14.35;;;4.10;;
49460;SDS011;35355;49.198;-0.368;2022-10-31T03:24:11;12.13;;;3.90;;
49460;SDS011;35355;49.198;-0.368;2022-10-31T03:26:39;14.80;;;3.22;;
49460;SDS011;35355;49.198;-0.368;2022-10-31T03:29:08;11.02;;;4.72;;
49460;SDS011;35355;49.198;-0.368;2022-10-31T03:31:39;10.35;;;3.05;;
49460;SDS011;35355;49.198;-0.368;2022-10-31T03:34:19;9.43;;;3.08;;
49460;SDS011;35355;49.198;-0.368;2022-10-31T03:36:45;13.50;;;4.32;;
49460;SDS011;35355;49.198;-0.368;2022-10-31T03:39:15;10.60;;;4.22;;
49460;SDS011;35355;49.198;-0.368;2022-10-31T03:41:44;13.00;;;4.40;;
49460;SDS011;35355;49.198;-0.368;2022-10-31T03:44:15;11.57;;;4.38;;
49460;SDS011;35355;49.198;-0.368;2022-10-31T03:46:42;13.68;;;3.78;;
49460;SDS011;35355;49.198;-0.368;2022-10-31T03:49:08;10.80;;;4.45;;
49460;SDS011;35355;49.198;-0.368;2022-10-31T03:54:32;14.65;;;4.20;;
49460;SDS011;35355;49.198;-0.368;2022-10-31T03:57:06;14.20;;;4.65;;
49460;SDS011;35355;49.198;-0.368;2022-10-31T03:59:57;18.13;;;4.13;;
49460;SDS011;35355;49.198;-0.368;2022-10-31T04:02:33;10.02;;;4.38;;
49460;SDS011;35355;49.198;-0.368;2022-10-31T04:05:03;8.48;;;3.42;;
49460;SDS011;35355;49.198;-0.368;2022-10-31T04:07:30;13.43;;;4.18;;
49460;SDS011;35355;49.198;-0.368;2022-10-31T04:10:09;10.95;;;3.28;;
49460;SDS011;35355;49.198;-0.368;2022-10-31T04:12:37;8.57;;;3.30;;
49460;SDS011;35355;49.198;-0.368;2022-10-31T04:15:05;15.70;;;4.93;;
49460;SDS011;35355;49.198;-0.368;2022-10-31T04:17:34;9.48;;;4.45;;
49460;SDS011;35355;49.198;-0.368;2022-10-31T04:20:04;11.60;;;3.63;;
49460;SDS011;35355;49.198;-0.368;2022-10-31T04:22:30;10.70;;;3.65;;
49460;SDS011;35355;49.198;-0.368;2022-10-31T04:24:55;6.82;;;3.92;;
49460;SDS011;35355;49.198;-0.368;2022-10-31T04:27:21;6.18;;;3.30;;
49460;SDS011;35355;49.198;-0.368;2022-10-31T04:29:46;6.85;;;3.42;;
49460;SDS011;35355;49.198;-0.368;2022-10-31T04:32:12;8.57;;;3.20;;
49460;SDS011;35355;49.198;-0.368;2022-10-31T04:34:37;8.40;;;3.05;;
49460;SDS011;35355;49.198;-0.368;2022-10-31T04:37:02;6.50;;;3.05;;
49460;SDS011;35355;49.198;-0.368;2022-10-31T04:39:28;7.55;;;2.95;;
49460;SDS011;35355;49.198;-0.368;2022-10-31T04:41:53;10.57;;;4.00;;
49460;SDS011;35355;49.198;-0.368;2022-10-31T04:44:18;9.82;;;3.65;;
49460;SDS011;35355;49.198;-0.368;2022-10-31T04:46:43;13.20;;;3.60;;
49460;SDS011;35355;49.198;-0.368;2022-10-31T04:49:09;16.42;;;3.67;;
49460;SDS011;35355;49.198;-0.368;2022-10-31T04:51:36;9.15;;;3.78;;
49460;SDS011;35355;49.198;-0.368;2022-10-31T04:54:01;8.32;;;3.35;;
49460;SDS011;35355;49.198;-0.368;2022-10-31T04:56:26;6.95;;;2.70;;
49460;SDS011;35355;49.198;-0.368;2022-10-31T04:58:52;11.07;;;3.35;;
49460;SDS011;35355;49.198;-0.368;2022-10-31T05:01:17;8.75;;;2.90;;
49460;SDS011;35355;49.198;-0.368;2022-10-31T05:03:42;7.40;;;2.90;;
49460;SDS011;35355;49.198;-0.368;2022-10-31T05:06:08;5.60;;;2.63;;
49460;SDS011;35355;49.198;-0.368;2022-10-31T05:08:33;8.00;;;3.10;;
49460;SDS011;35355;49.198;-0.368;2022-10-31T05:10:59;10.60;;;2.92;;
49460;SDS011;35355;49.198;-0.368;2022-10-31T05:13:26;7.43;;;2.97;;
49460;SDS011;35355;49.198;-0.368;2022-10-31T05:15:51;10.70;;;3.25;;
49460;SDS011;35355;49.198;-0.368;2022-10-31T05:18:17;4.18;;;2.33;;
49460;SDS011;35355;49.198;-0.368;2022-10-31T05:41:28;8.10;;;3.40;;
49460;SDS011;35355;49.198;-0.368;2022-10-31T05:43:53;12.05;;;4.45;;
49460;SDS011;35355;49.198;-0.368;2022-10-31T05:46:19;8.68;;;3.85;;
49460;SDS011;35355;49.198;-0.368;2022-10-31T05:48:44;11.10;;;4.45;;
49460;SDS011;35355;49.198;-0.368;2022-10-31T05:51:09;9.95;;;3.90;;
49460;SDS011;35355;49.198;-0.368;2022-10-31T05:53:37;10.35;;;4.25;;
49460;SDS011;35355;49.198;-0.368;2022-10-31T05:56:02;15.05;;;5.07;;
49460;SDS011;35355;49.198;-0.368;2022-10-31T05:58:27;9.65;;;4.35;;
49460;SDS011;35355;49.198;-0.368;2022-10-31T06:00:53;12.55;;;4.90;;
49460;SDS011;35355;49.198;-0.368;2022-10-31T06:03:18;10.82;;;3.85;;
49460;SDS011;35355;49.198;-0.368;2022-10-31T06:05:43;13.45;;;4.35;;
49460;SDS011;35355;49.198;-0.368;2022-10-31T06:08:09;13.65;;;4.35;;
49460;SDS011;35355;49.198;-0.368;2022-10-31T06:10:34;8.93;;;4.10;;
49460;SDS011;35355;49.198;-0.368;2022-10-31T06:12:59;6.55;;;3.95;;
49460;SDS011;35355;49.198;-0.368;2022-10-31T06:15:25;8.38;;;3.97;;
49460;SDS011;35355;49.198;-0.368;2022-10-31T06:18:01;11.82;;;3.90;;
49460;SDS011;35355;49.198;-0.368;2022-10-31T06:20:28;6.82;;;3.72;;
49460;SDS011;35355;49.198;-0.368;2022-10-31T06:22:53;11.32;;;4.28;;
49460;SDS011;35355;49.198;-0.368;2022-10-31T06:25:19;11.45;;;4.88;;
49460;SDS011;35355;49.198;-0.368;2022-10-31T06:27:44;9.38;;;4.00;;
49460;SDS011;35355;49.198;-0.368;2022-10-31T06:30:09;9.65;;;5.15;;
49460;SDS011;35355;49.198;-0.368;2022-10-31T06:32:35;9.48;;;4.13;;
49460;SDS011;35355;49.198;-0.368;2022-10-31T06:35:00;12.50;;;4.72;;
49460;SDS011;35355;49.198;-0.368;2022-10-31T06:37:26;8.07;;;4.53;;
49460;SDS011;35355;49.198;-0.368;2022-10-31T06:39:51;10.13;;;4.53;;
49460;SDS011;35355;49.198;-0.368;2022-10-31T06:42:16;12.23;;;5.30;;
49460;SDS011;35355;49.198;-0.368;2022-10-31T06:44:42;10.00;;;4.50;;
49460;SDS011;35355;49.198;-0.368;2022-10-31T06:47:07;10.48;;;4.65;;
49460;SDS011;35355;49.198;-0.368;2022-10-31T06:49:32;7.63;;;4.15;;
49460;SDS011;35355;49.198;-0.368;2022-10-31T06:51:58;11.50;;;4.25;;
49460;SDS011;35355;49.198;-0.368;2022-10-31T06:54:23;7.55;;;4.35;;
49460;SDS011;35355;49.198;-0.368;2022-10-31T06:56:49;6.68;;;4.00;;
49460;SDS011;35355;49.198;-0.368;2022-10-31T06:59:14;8.02;;;4.20;;
49460;SDS011;35355;49.198;-0.368;2022-10-31T07:01:40;12.48;;;4.45;;
49460;SDS011;35355;49.198;-0.368;2022-10-31T07:04:07;6.60;;;3.92;;
49460;SDS011;35355;49.198;-0.368;2022-10-31T07:06:33;9.82;;;4.55;;
49460;SDS011;35355;49.198;-0.368;2022-10-31T07:08:59;6.50;;;3.85;;
49460;SDS011;35355;49.198;-0.368;2022-10-31T07:11:24;10.63;;;4.38;;
49460;SDS011;35355;49.198;-0.368;2022-10-31T07:13:49;8.48;;;3.80;;
49460;SDS011;35355;49.198;-0.368;2022-10-31T07:16:15;9.30;;;4.22;;
49460;SDS011;35355;49.198;-0.368;2022-10-31T07:18:40;9.25;;;4.57;;
49460;SDS011;35355;49.198;-0.368;2022-10-31T07:21:05;11.25;;;4.20;;
49460;SDS011;35355;49.198;-0.368;2022-10-31T07:23:31;7.15;;;4.13;;
49460;SDS011;35355;49.198;-0.368;2022-10-31T07:25:56;9.38;;;3.83;;
49460;SDS011;35355;49.198;-0.368;2022-10-31T07:28:23;5.20;;;3.60;;
49460;SDS011;35355;49.198;-0.368;2022-10-31T07:30:49;6.72;;;3.80;;
49460;SDS011;35355;49.198;-0.368;2022-10-31T07:33:17;7.50;;;3.35;;
49460;SDS011;35355;49.198;-0.368;2022-10-31T07:35:42;4.75;;;3.40;;
49460;SDS011;35355;49.198;-0.368;2022-10-31T07:38:10;12.57;;;3.65;;
49460;SDS011;35355;49.198;-0.368;2022-10-31T07:40:36;5.32;;;3.42;;
49460;SDS011;35355;49.198;-0.368;2022-10-31T07:43:02;7.22;;;3.65;;
49460;SDS011;35355;49.198;-0.368;2022-10-31T07:45:27;9.18;;;3.70;;
49460;SDS011;35355;49.198;-0.368;2022-10-31T07:47:53;7.88;;;4.68;;
49460;SDS011;35355;49.198;-0.368;2022-10-31T07:50:20;7.10;;;4.00;;
49460;SDS011;35355;49.198;-0.368;2022-10-31T07:52:47;5.35;;;3.92;;
49460;SDS011;35355;49.198;-0.368;2022-10-31T07:55:13;7.15;;;4.30;;
49460;SDS011;35355;49.198;-0.368;2022-10-31T07:57:39;7.55;;;3.85;;
49460;SDS011;35355;49.198;-0.368;2022-10-31T08:00:06;13.00;;;5.53;;
49460;SDS011;35355;49.198;-0.368;2022-10-31T08:02:33;12.48;;;4.30;;
49460;SDS011;35355;49.198;-0.368;2022-10-31T08:04:59;6.07;;;3.90;;
49460;SDS011;35355;49.198;-0.368;2022-10-31T08:07:25;8.30;;;3.90;;
49460;SDS011;35355;49.198;-0.368;2022-10-31T08:09:51;7.13;;;3.60;;
49460;SDS011;35355;49.198;-0.368;2022-10-31T08:12:16;9.35;;;3.25;;
49460;SDS011;35355;49.198;-0.368;2022-10-31T08:14:42;7.25;;;3.15;;
49460;SDS011;35355;49.198;-0.368;2022-10-31T08:17:07;7.35;;;2.95;;
49460;SDS011;35355;49.198;-0.368;2022-10-31T08:19:33;8.98;;;3.50;;
49460;SDS011;35355;49.198;-0.368;2022-10-31T08:21:58;4.28;;;2.80;;
49460;SDS011;35355;49.198;-0.368;2022-10-31T08:24:24;7.82;;;3.50;;
49460;SDS011;35355;49.198;-0.368;2022-10-31T08:26:49;6.18;;;3.75;;
49460;SDS011;35355;49.198;-0.368;2022-10-31T08:29:15;8.73;;;4.72;;
49460;SDS011;35355;49.198;-0.368;2022-10-31T08:31:41;9.13;;;4.70;;
49460;SDS011;35355;49.198;-0.368;2022-10-31T08:34:06;11.95;;;5.78;;
49460;SDS011;35355;49.198;-0.368;2022-10-31T08:36:32;16.92;;;6.40;;
49460;SDS011;35355;49.198;-0.368;2022-10-31T08:38:57;10.32;;;5.22;;
49460;SDS011;35355;49.198;-0.368;2022-10-31T08:41:23;14.90;;;5.40;;
49460;SDS011;35355;49.198;-0.368;2022-10-31T08:43:48;7.72;;;4.90;;
49460;SDS011;35355;49.198;-0.368;2022-10-31T08:46:14;11.43;;;4.78;;
49460;SDS011;35355;49.198;-0.368;2022-10-31T08:48:39;5.75;;;3.58;;
49460;SDS011;35355;49.198;-0.368;2022-10-31T08:51:05;5.05;;;3.95;;
49460;SDS011;35355;49.198;-0.368;2022-10-31T08:53:31;5.78;;;3.63;;
49460;SDS011;35355;49.198;-0.368;2022-10-31T08:55:57;7.07;;;3.95;;
49460;SDS011;35355;49.198;-0.368;2022-10-31T08:58:23;7.57;;;3.95;;
49460;SDS011;35355;49.198;-0.368;2022-10-31T09:00:50;9.73;;;3.95;;
49460;SDS011;35355;49.198;-0.368;2022-10-31T09:03:19;9.20;;;4.20;;
49460;SDS011;35355;49.198;-0.368;2022-10-31T09:05:48;5.97;;;3.97;;
49460;SDS011;35355;49.198;-0.368;2022-10-31T09:08:14;6.80;;;4.32;;
49460;SDS011;35355;49.198;-0.368;2022-10-31T09:10:40;6.50;;;4.03;;
49460;SDS011;35355;49.198;-0.368;2022-10-31T09:13:07;5.97;;;3.85;;
49460;SDS011;35355;49.198;-0.368;2022-10-31T09:15:35;7.25;;;3.78;;
49460;SDS011;35355;49.198;-0.368;2022-10-31T09:18:03;4.93;;;3.42;;
49460;SDS011;35355;49.198;-0.368;2022-10-31T09:20:30;9.27;;;4.15;;
49460;SDS011;35355;49.198;-0.368;2022-10-31T09:23:00;5.28;;;3.30;;
49460;SDS011;35355;49.198;-0.368;2022-10-31T09:25:28;3.45;;;2.75;;
49460;SDS011;35355;49.198;-0.368;2022-10-31T09:27:57;4.72;;;2.40;;
49460;SDS011;35355;49.198;-0.368;2022-10-31T09:30:23;4.10;;;2.30;;
49460;SDS011;35355;49.198;-0.368;2022-10-31T09:32:54;5.45;;;2.22;;
49460;SDS011;35355;49.198;-0.368;2022-10-31T09:35:21;4.22;;;2.25;;
49460;SDS011;35355;49.198;-0.368;2022-10-31T09:37:46;5.78;;;1.80;;
49460;SDS011;35355;49.198;-0.368;2022-10-31T09:40:11;2.35;;;1.60;;
49460;SDS011;35355;49.198;-0.368;2022-10-31T09:50:48;1.63;;;1.00;;
49460;SDS011;35355;49.198;-0.368;2022-10-31T09:53:25;1.80;;;0.77;;
49460;SDS011;35355;49.198;-0.368;2022-10-31T09:55:52;3.65;;;1.02;;
49460;SDS011;35355;49.198;-0.368;2022-10-31T09:58:20;6.25;;;0.90;;
49460;SDS011;35355;49.198;-0.368;2022-10-31T10:00:49;2.50;;;0.68;;
49460;SDS011;35355;49.198;-0.368;2022-10-31T10:05:51;4.55;;;1.25;;
49460;SDS011;35355;49.198;-0.368;2022-10-31T10:08:39;3.80;;;0.60;;
49460;SDS011;35355;49.198;-0.368;2022-10-31T10:11:13;4.82;;;1.27;;
49460;SDS011;35355;49.198;-0.368;2022-10-31T10:25:13;4.63;;;0.73;;
49460;SDS011;35355;49.198;-0.368;2022-10-31T10:30:39;3.10;;;0.80;;
49460;SDS011;35355;49.198;-0.368;2022-10-31T10:33:24;6.72;;;1.10;;
49460;SDS011;35355;49.198;-0.368;2022-10-31T10:35:55;1.77;;;0.52;;
49460;SDS011;35355;49.198;-0.368;2022-10-31T10:40:56;1.00;;;0.40;;
49460;SDS011;35355;49.198;-0.368;2022-10-31T10:43:38;5.00;;;0.77;;
49460;SDS011;35355;49.198;-0.368;2022-10-31T10:57:05;4.37;;;0.87;;
49460;SDS011;35355;49.198;-0.368;2022-10-31T10:59:48;4.80;;;1.15;;
49460;SDS011;35355;49.198;-0.368;2022-10-31T11:02:32;1.33;;;0.70;;
49460;SDS011;35355;49.198;-0.368;2022-10-31T11:04:58;3.63;;;0.80;;
49460;SDS011;35355;49.198;-0.368;2022-10-31T11:07:36;4.00;;;0.70;;
49460;SDS011;35355;49.198;-0.368;2022-10-31T11:10:03;6.13;;;1.20;;
49460;SDS011;35355;49.198;-0.368;2022-10-31T11:12:33;6.55;;;1.33;;
49460;SDS011;35355;49.198;-0.368;2022-10-31T11:15:00;2.92;;;0.60;;
49460;SDS011;35355;49.198;-0.368;2022-10-31T11:20:49;1.83;;;0.60;;
49460;SDS011;35355;49.198;-0.368;2022-10-31T11:22:45;1.17;;;0.55;;
49460;SDS011;35355;49.198;-0.368;2022-10-31T11:27:44;4.60;;;0.80;;
49460;SDS011;35355;49.198;-0.368;2022-10-31T11:30:11;1.73;;;0.68;;
49460;SDS011;35355;49.198;-0.368;2022-10-31T11:32:39;2.05;;;0.95;;
49460;SDS011;35355;49.198;-0.368;2022-10-31T11:35:11;8.60;;;2.38;;
49460;SDS011;35355;49.198;-0.368;2022-10-31T11:37:42;4.72;;;0.90;;
49460;SDS011;35355;49.198;-0.368;2022-10-31T11:40:44;2.85;;;1.15;;
49460;SDS011;35355;49.198;-0.368;2022-10-31T11:43:01;9.93;;;0.80;;
49460;SDS011;35355;49.198;-0.368;2022-10-31T11:45:31;5.57;;;1.50;;
49460;SDS011;35355;49.198;-0.368;2022-10-31T11:47:59;1.95;;;1.10;;
49460;SDS011;35355;49.198;-0.368;2022-10-31T11:50:32;4.18;;;1.40;;
49460;SDS011;35355;49.198;-0.368;2022-10-31T11:53:09;5.82;;;1.17;;
49460;SDS011;35355;49.198;-0.368;2022-10-31T11:55:39;5.00;;;2.85;;
49460;SDS011;35355;49.198;-0.368;2022-10-31T11:58:18;7.13;;;2.10;;
49460;SDS011;35355;49.198;-0.368;2022-10-31T12:00:51;13.45;;;4.63;;
49460;SDS011;35355;49.198;-0.368;2022-10-31T12:05:48;7.30;;;3.60;;
49460;SDS011;35355;49.198;-0.368;2022-10-31T12:08:19;8.40;;;2.88;;
49460;SDS011;35355;49.198;-0.368;2022-10-31T12:10:57;5.93;;;3.30;;
49460;SDS011;35355;49.198;-0.368;2022-10-31T12:27:14;13.93;;;3.33;;
49460;SDS011;35355;49.198;-0.368;2022-10-31T12:30:06;12.45;;;4.10;;
49460;SDS011;35355;49.198;-0.368;2022-10-31T12:32:48;10.48;;;3.38;;
49460;SDS011;35355;49.198;-0.368;2022-10-31T12:35:40;7.07;;;2.97;;
49460;SDS011;35355;49.198;-0.368;2022-10-31T12:38:18;12.40;;;3.92;;
49460;SDS011;35355;49.198;-0.368;2022-10-31T12:43:43;14.05;;;4.45;;
49460;SDS011;35355;49.198;-0.368;2022-10-31T12:49:20;13.98;;;4.30;;
49460;SDS011;35355;49.198;-0.368;2022-10-31T12:51:57;13.18;;;3.30;;
49460;SDS011;35355;49.198;-0.368;2022-10-31T12:57:31;8.75;;;4.00;;
49460;SDS011;35355;49.198;-0.368;2022-10-31T13:00:05;10.15;;;4.28;;
49460;SDS011;35355;49.198;-0.368;2022-10-31T13:02:46;7.28;;;4.25;;
49460;SDS011;35355;49.198;-0.368;2022-10-31T13:07:58;10.55;;;3.70;;
49460;SDS011;35355;49.198;-0.368;2022-10-31T13:10:32;13.25;;;3.97;;
49460;SDS011;35355;49.198;-0.368;2022-10-31T13:13:06;8.77;;;3.30;;
49460;SDS011;35355;49.198;-0.368;2022-10-31T13:16:01;9.68;;;3.58;;
49460;SDS011;35355;49.198;-0.368;2022-10-31T13:18:29;11.82;;;4.10;;
49460;SDS011;35355;49.198;-0.368;2022-10-31T13:20:58;17.02;;;5.03;;
49460;SDS011;35355;49.198;-0.368;2022-10-31T13:23:33;16.48;;;5.32;;
49460;SDS011;35355;49.198;-0.368;2022-10-31T13:26:06;16.33;;;4.85;;
49460;SDS011;35355;49.198;-0.368;2022-10-31T13:31:48;15.40;;;5.82;;
49460;SDS011;35355;49.198;-0.368;2022-10-31T13:34:18;13.85;;;5.55;;
49460;SDS011;35355;49.198;-0.368;2022-10-31T13:36:52;11.73;;;5.07;;
49460;SDS011;35355;49.198;-0.368;2022-10-31T13:39:41;12.55;;;5.40;;
49460;SDS011;35355;49.198;-0.368;2022-10-31T13:45:06;13.32;;;4.78;;
49460;SDS011;35355;49.198;-0.368;2022-10-31T13:47:36;11.75;;;4.85;;
49460;SDS011;35355;49.198;-0.368;2022-10-31T13:50:20;15.00;;;4.75;;
49460;SDS011;35355;49.198;-0.368;2022-10-31T14:12:53;20.00;;;6.50;;
49460;SDS011;35355;49.198;-0.368;2022-10-31T14:15:40;16.88;;;6.13;;
49460;SDS011;35355;49.198;-0.368;2022-10-31T14:18:21;11.63;;;5.72;;
49460;SDS011;35355;49.198;-0.368;2022-10-31T14:20:49;12.88;;;6.00;;
49460;SDS011;35355;49.198;-0.368;2022-10-31T14:28:42;13.55;;;5.55;;
49460;SDS011;35355;49.198;-0.368;2022-10-31T14:31:27;13.15;;;5.10;;
49460;SDS011;35355;49.198;-0.368;2022-10-31T14:33:53;21.15;;;6.57;;
49460;SDS011;35355;49.198;-0.368;2022-10-31T14:39:33;15.48;;;6.43;;
49460;SDS011;35355;49.198;-0.368;2022-10-31T14:47:36;17.65;;;6.45;;
49460;SDS011;35355;49.198;-0.368;2022-10-31T14:53:02;14.73;;;6.57;;
49460;SDS011;35355;49.198;-0.368;2022-10-31T14:55:31;20.33;;;5.90;;
49460;SDS011;35355;49.198;-0.368;2022-10-31T14:57:58;10.77;;;5.95;;
49460;SDS011;35355;49.198;-0.368;2022-10-31T15:00:26;26.13;;;7.72;;
49460;SDS011;35355;49.198;-0.368;2022-10-31T15:03:07;14.73;;;5.70;;
49460;SDS011;35355;49.198;-0.368;2022-10-31T15:05:40;15.85;;;6.35;;
49460;SDS011;35355;49.198;-0.368;2022-10-31T15:08:13;11.77;;;6.05;;
49460;SDS011;35355;49.198;-0.368;2022-10-31T15:10:56;11.60;;;5.70;;
49460;SDS011;35355;49.198;-0.368;2022-10-31T15:13:21;12.88;;;6.30;;
49460;SDS011;35355;49.198;-0.368;2022-10-31T15:15:47;14.48;;;5.88;;
49460;SDS011;35355;49.198;-0.368;2022-10-31T15:18:19;18.88;;;5.95;;
49460;SDS011;35355;49.198;-0.368;2022-10-31T15:20:48;14.50;;;5.88;;
49460;SDS011;35355;49.198;-0.368;2022-10-31T15:23:17;17.98;;;6.28;;
49460;SDS011;35355;49.198;-0.368;2022-10-31T15:25:47;15.90;;;5.38;;
49460;SDS011;35355;49.198;-0.368;2022-10-31T15:28:20;17.40;;;6.53;;
49460;SDS011;35355;49.198;-0.368;2022-10-31T15:30:55;17.88;;;5.82;;
49460;SDS011;35355;49.198;-0.368;2022-10-31T15:33:29;18.27;;;7.00;;
49460;SDS011;35355;49.198;-0.368;2022-10-31T15:36:05;16.40;;;6.90;;
49460;SDS011;35355;49.198;-0.368;2022-10-31T15:38:31;19.60;;;6.72;;
49460;SDS011;35355;49.198;-0.368;2022-10-31T15:43:23;13.73;;;6.10;;
49460;SDS011;35355;49.198;-0.368;2022-10-31T15:45:48;13.25;;;6.18;;
49460;SDS011;35355;49.198;-0.368;2022-10-31T15:48:18;14.55;;;6.25;;
49460;SDS011;35355;49.198;-0.368;2022-10-31T15:50:54;17.85;;;6.35;;
49460;SDS011;35355;49.198;-0.368;2022-10-31T15:53:24;17.77;;;6.90;;
49460;SDS011;35355;49.198;-0.368;2022-10-31T15:56:02;14.20;;;6.20;;
49460;SDS011;35355;49.198;-0.368;2022-10-31T15:58:32;12.88;;;6.43;;
49460;SDS011;35355;49.198;-0.368;2022-10-31T16:01:05;14.95;;;5.72;;
49460;SDS011;35355;49.198;-0.368;2022-10-31T16:03:54;20.45;;;7.75;;
49460;SDS011;35355;49.198;-0.368;2022-10-31T16:06:26;22.90;;;6.70;;
49460;SDS011;35355;49.198;-0.368;2022-10-31T16:08:52;22.13;;;7.60;;
49460;SDS011;35355;49.198;-0.368;2022-10-31T16:16:40;23.75;;;7.60;;
49460;SDS011;35355;49.198;-0.368;2022-10-31T16:19:14;12.75;;;7.47;;
49460;SDS011;35355;49.198;-0.368;2022-10-31T16:21:53;17.83;;;6.97;;
49460;SDS011;35355;49.198;-0.368;2022-10-31T16:24:23;15.40;;;7.40;;
49460;SDS011;35355;49.198;-0.368;2022-10-31T16:26:53;15.25;;;6.70;;
49460;SDS011;35355;49.198;-0.368;2022-10-31T16:35:02;27.98;;;8.57;;
49460;SDS011;35355;49.198;-0.368;2022-10-31T16:37:43;14.93;;;7.10;;
49460;SDS011;35355;49.198;-0.368;2022-10-31T16:40:12;16.33;;;8.35;;
49460;SDS011;35355;49.198;-0.368;2022-10-31T16:42:40;13.45;;;6.57;;
49460;SDS011;35355;49.198;-0.368;2022-10-31T16:45:06;15.38;;;6.78;;
49460;SDS011;35355;49.198;-0.368;2022-10-31T16:47:33;13.98;;;8.10;;
49460;SDS011;35355;49.198;-0.368;2022-10-31T16:49:58;17.48;;;6.63;;
49460;SDS011;35355;49.198;-0.368;2022-10-31T16:52:24;16.08;;;6.97;;
49460;SDS011;35355;49.198;-0.368;2022-10-31T16:54:50;17.98;;;6.05;;
49460;SDS011;35355;49.198;-0.368;2022-10-31T16:57:17;19.92;;;5.13;;
49460;SDS011;35355;49.198;-0.368;2022-10-31T16:59:48;12.80;;;4.90;;
49460;SDS011;35355;49.198;-0.368;2022-10-31T17:02:16;10.15;;;4.70;;
49460;SDS011;35355;49.198;-0.368;2022-10-31T17:04:41;11.23;;;5.20;;
49460;SDS011;35355;49.198;-0.368;2022-10-31T17:07:07;7.70;;;3.97;;
49460;SDS011;35355;49.198;-0.368;2022-10-31T17:09:32;15.27;;;4.28;;
49460;SDS011;35355;49.198;-0.368;2022-10-31T17:11:58;9.45;;;4.35;;
49460;SDS011;35355;49.198;-0.368;2022-10-31T17:14:24;10.30;;;4.20;;
49460;SDS011;35355;49.198;-0.368;2022-10-31T17:16:49;7.22;;;3.28;;
49460;SDS011;35355;49.198;-0.368;2022-10-31T17:19:15;10.00;;;3.38;;
49460;SDS011;35355;49.198;-0.368;2022-10-31T17:21:40;12.18;;;3.78;;
49460;SDS011;35355;49.198;-0.368;2022-10-31T17:24:07;10.57;;;3.67;;
49460;SDS011;35355;49.198;-0.368;2022-10-31T17:26:36;9.93;;;3.72;;
49460;SDS011;35355;49.198;-0.368;2022-10-31T17:29:02;8.95;;;3.25;;
49460;SDS011;35355;49.198;-0.368;2022-10-31T17:31:28;9.43;;;3.97;;
49460;SDS011;35355;49.198;-0.368;2022-10-31T17:33:55;10.65;;;4.22;;
49460;SDS011;35355;49.198;-0.368;2022-10-31T17:36:21;9.70;;;4.07;;
49460;SDS011;35355;49.198;-0.368;2022-10-31T17:38:47;10.43;;;3.85;;
49460;SDS011;35355;49.198;-0.368;2022-10-31T17:41:12;12.27;;;3.70;;
49460;SDS011;35355;49.198;-0.368;2022-10-31T17:43:38;7.70;;;3.80;;
49460;SDS011;35355;49.198;-0.368;2022-10-31T17:46:03;8.77;;;3.58;;
49460;SDS011;35355;49.198;-0.368;2022-10-31T17:48:29;9.63;;;3.70;;